createdAt,value
2019-03-19T00:01:48.996Z,2.30
2019-03-19T00:04:36.444Z,2.40
2019-03-19T00:07:23.856Z,2.40
2019-03-19T00:10:11.866Z,2.30
2019-03-19T00:12:59.512Z,2.30
2019-03-19T00:15:47.189Z,2.30
2019-03-19T00:18:34.576Z,2.30
2019-03-19T00:21:22.043Z,2.20
2019-03-19T00:24:09.484Z,2.20
2019-03-19T00:26:57.098Z,2.10
2019-03-19T00:29:44.944Z,2.10
2019-03-19T00:32:32.499Z,2.10
2019-03-19T00:35:20.153Z,2.10
2019-03-19T00:38:07.729Z,2.30
2019-03-19T00:40:55.481Z,2.40
2019-03-19T00:43:43.241Z,2.40
2019-03-19T00:46:30.950Z,2.30
2019-03-19T00:49:18.537Z,2.30
2019-03-19T00:52:06.048Z,2.20
2019-03-19T00:54:53.488Z,2.30
2019-03-19T00:57:41.164Z,2.20
2019-03-19T01:00:28.988Z,2.30
2019-03-19T01:03:16.606Z,2.20
2019-03-19T01:06:04.073Z,2.20
2019-03-19T01:08:51.684Z,2.20
2019-03-19T01:11:39.236Z,2.20
2019-03-19T01:14:26.644Z,2.20
2019-03-19T01:17:13.986Z,2.20
2019-03-19T01:20:01.634Z,2.20
2019-03-19T01:22:48.990Z,2.10
2019-03-19T01:25:36.516Z,2.10
2019-03-19T01:28:23.949Z,2.10
2019-03-19T01:31:11.476Z,2.10
2019-03-19T01:33:59.134Z,2.20
2019-03-19T01:36:46.852Z,2.30
2019-03-19T01:39:34.496Z,2.30
2019-03-19T01:42:22.352Z,2.20
2019-03-19T01:45:11.265Z,2.10
2019-03-19T01:47:58.656Z,2.10
2019-03-19T01:50:46.280Z,2.10
2019-03-19T01:53:33.764Z,2.10
2019-03-19T01:56:21.197Z,1.90
2019-03-19T01:59:08.851Z,1.80
2019-03-19T02:01:56.652Z,1.70
2019-03-19T02:04:44.572Z,4.20
2019-03-19T02:07:32.176Z,1.60
2019-03-19T02:10:19.649Z,1.50
2019-03-19T02:13:07.426Z,1.50
2019-03-19T02:15:54.759Z,1.40
2019-03-19T02:18:42.197Z,1.40
2019-03-19T02:21:29.789Z,1.40
2019-03-19T02:24:17.372Z,1.50
2019-03-19T02:27:04.838Z,1.40
2019-03-19T02:29:52.291Z,1.40
2019-03-19T02:32:40.065Z,1.40
2019-03-19T02:35:27.619Z,1.40
2019-03-19T02:38:15.301Z,1.50
2019-03-19T02:41:02.928Z,1.60
2019-03-19T02:43:50.476Z,1.60
2019-03-19T02:46:37.900Z,1.60
2019-03-19T02:49:25.280Z,1.60
2019-03-19T02:52:12.916Z,1.60
2019-03-19T02:55:00.430Z,1.70
2019-03-19T02:57:48.207Z,1.70
2019-03-19T03:00:35.676Z,1.70
2019-03-19T03:03:23.529Z,1.90
2019-03-19T03:06:11.219Z,1.80
2019-03-19T03:08:58.581Z,1.80
2019-03-19T03:11:46.373Z,1.70
2019-03-19T03:14:34.011Z,1.50
2019-03-19T03:17:21.644Z,1.40
2019-03-19T03:20:11.551Z,1.30
2019-03-19T03:22:59.076Z,1.30
2019-03-19T03:25:46.834Z,1.10
2019-03-19T03:28:34.204Z,1.10
2019-03-19T03:31:21.789Z,1.00
2019-03-19T03:34:09.249Z,1.00
2019-03-19T03:36:56.826Z,1.00
2019-03-19T03:39:44.374Z,0.90
2019-03-19T03:42:31.997Z,0.70
2019-03-19T03:45:19.950Z,0.40
2019-03-19T03:48:07.329Z,0.40
2019-03-19T03:50:54.723Z,0.30
2019-03-19T03:53:42.354Z,0.30
2019-03-19T03:56:30.162Z,0.20
2019-03-19T03:59:17.601Z,0.10
2019-03-19T04:02:05.058Z,0.10
2019-03-19T04:04:52.801Z,0.10
2019-03-19T04:07:40.420Z,0.10
2019-03-19T04:10:27.738Z,0.10
2019-03-19T04:13:15.409Z,0.00
2019-03-19T04:16:03.165Z,0.00
2019-03-19T04:18:50.605Z,-0.10
2019-03-19T04:21:38.210Z,-0.20
2019-03-19T04:24:25.973Z,-0.10
2019-03-19T04:27:16.188Z,0.00
2019-03-19T04:30:02.897Z,-0.10
2019-03-19T04:32:50.564Z,-0.20
2019-03-19T04:35:38.239Z,-0.30
2019-03-19T04:38:26.078Z,-0.30
2019-03-19T04:41:13.840Z,-0.30
2019-03-19T04:44:01.549Z,-0.30
2019-03-19T04:46:49.182Z,-0.30
2019-03-19T04:49:36.724Z,-0.20
2019-03-19T04:52:24.460Z,0.00
2019-03-19T04:55:13.241Z,0.30
2019-03-19T04:58:00.646Z,0.30
2019-03-19T05:00:48.432Z,0.40
2019-03-19T05:03:36.102Z,0.40
2019-03-19T05:06:23.667Z,0.60
2019-03-19T05:09:11.385Z,0.70
2019-03-19T05:11:58.780Z,0.80
2019-03-19T05:14:46.514Z,1.00
2019-03-19T05:17:34.081Z,1.10
2019-03-19T05:20:21.813Z,1.20
2019-03-19T05:23:09.608Z,1.30
2019-03-19T05:25:57.003Z,1.30
2019-03-19T05:28:44.716Z,1.30
2019-03-19T05:31:32.399Z,1.20
2019-03-19T05:34:20.106Z,1.20
2019-03-19T05:37:07.685Z,1.20
2019-03-19T05:39:55.162Z,1.20
2019-03-19T05:42:42.733Z,1.30
2019-03-19T05:45:30.098Z,1.30
2019-03-19T05:48:17.560Z,1.30
2019-03-19T05:51:05.036Z,1.30
2019-03-19T05:53:52.685Z,1.50
2019-03-19T05:56:40.221Z,1.60
2019-03-19T05:59:27.873Z,1.60
2019-03-19T06:02:15.736Z,1.70
2019-03-19T06:05:03.385Z,1.70
2019-03-19T06:07:50.752Z,1.70
2019-03-19T06:10:38.371Z,1.70
2019-03-19T06:13:26.125Z,1.60
2019-03-19T06:16:13.708Z,1.70
2019-03-19T06:19:01.205Z,1.80
2019-03-19T06:21:48.666Z,1.90
2019-03-19T06:24:36.229Z,1.90
2019-03-19T06:27:23.903Z,2.10
2019-03-19T06:30:21.599Z,2.20
2019-03-19T06:33:08.958Z,2.40
2019-03-19T06:35:56.584Z,2.60
2019-03-19T06:38:44.345Z,2.70
2019-03-19T06:41:31.905Z,2.80
2019-03-19T06:44:19.310Z,2.90
2019-03-19T06:47:06.936Z,3.10
2019-03-19T06:49:54.840Z,3.20
2019-03-19T06:52:42.545Z,3.20
2019-03-19T06:55:30.002Z,3.30
2019-03-19T06:58:17.493Z,3.30
2019-03-19T07:01:05.181Z,3.60
2019-03-19T07:03:52.845Z,3.90
2019-03-19T07:06:40.255Z,4.30
2019-03-19T07:09:28.004Z,4.60
2019-03-19T07:12:15.308Z,4.80
2019-03-19T07:15:02.737Z,5.30
2019-03-19T07:17:50.070Z,5.30
2019-03-19T07:20:37.877Z,5.40
2019-03-19T07:23:25.356Z,5.30
2019-03-19T07:26:13.071Z,5.10
2019-03-19T07:29:00.714Z,5.10
2019-03-19T07:31:48.129Z,5.10
2019-03-19T07:34:35.775Z,5.10
2019-03-19T07:37:23.515Z,5.00
2019-03-19T07:40:14.105Z,4.90
2019-03-19T07:43:01.813Z,4.80
2019-03-19T07:45:49.317Z,4.80
2019-03-19T07:48:37.045Z,4.80
2019-03-19T07:51:24.545Z,5.00
2019-03-19T07:54:12.157Z,5.00
2019-03-19T07:56:59.884Z,5.00
2019-03-19T07:59:47.595Z,5.10
2019-03-19T08:02:35.391Z,5.20
2019-03-19T08:05:32.671Z,5.40
2019-03-19T08:08:12.153Z,5.50
2019-03-19T08:10:59.754Z,5.70
2019-03-19T08:13:47.556Z,5.70
2019-03-19T08:16:35.189Z,5.70
2019-03-19T08:19:22.570Z,5.80
2019-03-19T08:22:10.253Z,5.90
2019-03-19T08:24:58.088Z,5.90
2019-03-19T08:27:45.678Z,5.80
2019-03-19T08:30:33.290Z,5.80
2019-03-19T08:33:21.224Z,5.90
2019-03-19T08:36:09.677Z,6.00
2019-03-19T08:38:57.286Z,6.00
2019-03-19T08:41:44.599Z,6.10
2019-03-19T08:44:32.283Z,5.80
2019-03-19T08:47:19.616Z,6.60
2019-03-19T08:50:12.901Z,7.10
2019-03-19T08:53:00.602Z,7.40
2019-03-19T08:55:48.037Z,7.70
2019-03-19T08:58:35.669Z,7.90
2019-03-19T09:01:23.350Z,7.80
2019-03-19T09:04:10.789Z,7.70
2019-03-19T09:06:58.457Z,7.40
2019-03-19T09:09:46.013Z,7.20
2019-03-19T09:12:33.466Z,7.20
2019-03-19T09:15:30.036Z,7.00
2019-03-19T09:18:17.710Z,7.00
2019-03-19T09:21:05.309Z,7.10
2019-03-19T09:23:52.671Z,7.20
2019-03-19T09:26:40.522Z,7.20
2019-03-19T09:29:27.912Z,7.40
2019-03-19T09:32:15.449Z,7.70
2019-03-19T09:35:02.836Z,8.00
2019-03-19T09:37:58.421Z,8.20
2019-03-19T09:40:39.589Z,8.40
2019-03-19T09:43:27.196Z,8.60
2019-03-19T09:46:14.948Z,8.60
2019-03-19T09:49:02.551Z,8.50
2019-03-19T09:51:50.204Z,8.50
2019-03-19T09:54:37.949Z,8.50
2019-03-19T09:57:25.475Z,8.70
2019-03-19T10:00:18.846Z,8.70
2019-03-19T10:03:06.457Z,8.70
2019-03-19T10:05:53.912Z,8.90
2019-03-19T10:08:41.587Z,9.20
2019-03-19T10:11:29.147Z,9.60
2019-03-19T10:14:17.494Z,9.90
2019-03-19T10:17:05.601Z,10.10
2019-03-19T10:19:53.149Z,10.40
2019-03-19T10:22:40.950Z,10.70
2019-03-19T10:25:28.330Z,11.30
2019-03-19T10:28:15.777Z,11.90
2019-03-19T10:31:03.433Z,12.60
2019-03-19T10:33:50.888Z,13.10
2019-03-19T10:36:38.595Z,13.60
2019-03-19T10:39:25.966Z,13.90
2019-03-19T10:42:13.818Z,14.20
2019-03-19T10:45:01.217Z,14.50
2019-03-19T10:47:48.693Z,14.20
2019-03-19T10:50:36.096Z,13.80
2019-03-19T10:53:23.582Z,13.70
2019-03-19T10:56:11.209Z,13.40
2019-03-19T10:58:58.873Z,13.30
2019-03-19T11:01:46.289Z,12.40
2019-03-19T11:04:33.995Z,11.90
2019-03-19T11:07:21.390Z,11.50
2019-03-19T11:10:10.702Z,10.90
2019-03-19T11:12:58.364Z,10.30
2019-03-19T11:15:45.870Z,10.00
2019-03-19T11:18:33.588Z,9.80
2019-03-19T11:21:21.155Z,9.80
2019-03-19T11:24:08.954Z,10.00
2019-03-19T11:26:56.364Z,10.30
2019-03-19T11:29:43.916Z,10.50
2019-03-19T11:32:31.609Z,11.00
2019-03-19T11:35:19.457Z,11.90
2019-03-19T11:38:06.809Z,12.00
2019-03-19T11:40:54.199Z,12.40
2019-03-19T11:43:41.860Z,12.60
2019-03-19T11:46:29.304Z,12.10
2019-03-19T11:49:17.002Z,11.90
2019-03-19T11:52:05.066Z,11.50
2019-03-19T11:54:52.500Z,11.40
2019-03-19T11:57:40.192Z,11.20
2019-03-19T12:00:48.204Z,11.10
2019-03-19T12:03:35.914Z,11.10
2019-03-19T12:06:23.391Z,10.90
2019-03-19T12:09:11.181Z,10.70
2019-03-19T12:11:58.801Z,10.60
2019-03-19T12:14:47.383Z,10.50
2019-03-19T12:17:35.060Z,10.40
2019-03-19T12:20:22.666Z,10.40
2019-03-19T12:23:10.273Z,10.30
2019-03-19T12:25:57.897Z,10.40
2019-03-19T12:28:45.359Z,10.60
2019-03-19T12:31:32.905Z,10.80
2019-03-19T12:34:20.537Z,11.30
2019-03-19T12:37:08.271Z,11.80
2019-03-19T12:39:56.207Z,12.20
2019-03-19T12:42:43.558Z,12.50
2019-03-19T12:45:31.251Z,12.90
2019-03-19T12:48:18.923Z,13.30
2019-03-19T12:51:06.673Z,13.40
2019-03-19T12:53:54.277Z,13.20
2019-03-19T12:56:41.645Z,13.20
2019-03-19T12:59:29.387Z,13.20
2019-03-19T13:02:16.845Z,12.80
2019-03-19T13:07:52.565Z,12.00
2019-03-19T13:10:40.109Z,11.50
2019-03-19T13:13:27.820Z,11.10
2019-03-19T13:16:15.446Z,10.70
2019-03-19T13:19:02.925Z,10.50
2019-03-19T13:21:50.386Z,10.40
2019-03-19T13:24:38.008Z,10.50
2019-03-19T13:27:25.538Z,10.80
2019-03-19T13:30:22.063Z,11.10
2019-03-19T13:33:09.617Z,11.50
2019-03-19T13:35:57.001Z,11.80
2019-03-19T13:38:44.813Z,12.00
2019-03-19T13:41:32.274Z,12.10
2019-03-19T13:44:19.769Z,12.30
2019-03-19T13:47:07.526Z,12.30
2019-03-19T13:49:55.305Z,12.10
2019-03-19T13:52:42.985Z,12.00
2019-03-19T13:55:30.661Z,12.50
2019-03-19T13:58:18.380Z,12.50
2019-03-19T14:01:05.746Z,12.40
2019-03-19T14:03:53.333Z,11.80
2019-03-19T14:06:40.818Z,11.30
2019-03-19T14:09:28.612Z,10.80
2019-03-19T14:12:16.149Z,10.40
2019-03-19T14:15:05.589Z,10.10
2019-03-19T14:17:53.204Z,10.00
2019-03-19T14:20:41.009Z,10.10
2019-03-19T14:23:28.618Z,10.40
2019-03-19T14:26:16.297Z,10.60
2019-03-19T14:29:03.918Z,10.70
2019-03-19T14:31:51.596Z,11.00
2019-03-19T14:34:39.372Z,11.20
2019-03-19T14:37:26.968Z,11.40
2019-03-19T14:40:24.461Z,11.60
2019-03-19T14:43:12.076Z,11.40
2019-03-19T14:45:59.530Z,11.30
2019-03-19T14:48:47.033Z,11.10
2019-03-19T14:51:34.637Z,11.00
2019-03-19T14:54:22.218Z,10.70
2019-03-19T14:57:09.894Z,10.50
2019-03-19T14:59:57.610Z,10.30
2019-03-19T15:02:45.023Z,10.30
2019-03-19T15:05:32.668Z,10.30
2019-03-19T15:08:20.154Z,10.30
2019-03-19T15:11:07.550Z,10.30
2019-03-19T15:13:55.400Z,10.40
2019-03-19T15:16:43.232Z,10.50
2019-03-19T15:19:30.732Z,10.50
2019-03-19T15:22:18.368Z,10.50
2019-03-19T15:25:07.853Z,10.60
2019-03-19T15:27:55.529Z,10.60
2019-03-19T15:30:43.020Z,10.50
2019-03-19T15:33:30.444Z,10.50
2019-03-19T15:36:18.021Z,10.40
2019-03-19T15:39:07.141Z,10.30
2019-03-19T15:41:54.695Z,10.20
2019-03-19T15:44:42.096Z,10.20
2019-03-19T15:47:29.713Z,10.10
2019-03-19T15:50:17.455Z,10.00
2019-03-19T15:53:05.054Z,9.90
2019-03-19T15:55:52.680Z,9.90
2019-03-19T15:58:40.576Z,9.90
2019-03-19T16:01:28.214Z,9.80
2019-03-19T16:04:15.573Z,9.80
2019-03-19T16:07:03.225Z,9.80
2019-03-19T16:09:50.686Z,9.70
2019-03-19T16:12:38.436Z,9.60
2019-03-19T16:15:25.821Z,9.40
2019-03-19T16:18:13.376Z,9.40
2019-03-19T16:21:00.805Z,9.50
2019-03-19T16:23:48.160Z,9.60
2019-03-19T16:26:35.565Z,9.50
2019-03-19T16:33:11.005Z,9.40
2019-03-19T16:35:58.617Z,9.30
2019-03-19T16:38:46.240Z,9.30
2019-03-19T16:41:33.846Z,9.20
2019-03-19T16:44:21.252Z,9.20
2019-03-19T16:47:08.781Z,9.10
2019-03-19T16:49:56.433Z,9.00
2019-03-19T16:52:43.969Z,9.00
2019-03-19T16:55:31.372Z,8.80
2019-03-19T16:58:18.937Z,8.80
2019-03-19T17:01:06.761Z,8.70
2019-03-19T17:03:54.171Z,8.70
2019-03-19T17:06:41.617Z,8.60
2019-03-19T17:09:29.000Z,8.40
2019-03-19T17:12:16.853Z,8.30
2019-03-19T17:15:07.383Z,8.10
2019-03-19T17:17:54.712Z,8.10
2019-03-19T17:20:42.400Z,8.00
2019-03-19T17:23:29.830Z,7.90
2019-03-19T17:26:17.458Z,7.90
2019-03-19T17:29:05.127Z,7.70
2019-03-19T17:31:52.764Z,7.50
2019-03-19T17:34:40.518Z,7.40
2019-03-19T17:37:28.269Z,7.40
2019-03-19T17:40:16.516Z,7.30
2019-03-19T17:43:03.976Z,7.20
2019-03-19T17:45:51.525Z,7.00
2019-03-19T17:48:38.973Z,6.90
2019-03-19T17:51:26.558Z,6.70
2019-03-19T17:54:14.284Z,6.60
2019-03-19T17:57:01.813Z,6.40
2019-03-19T17:59:49.170Z,6.20
2019-03-19T18:02:36.708Z,5.90
2019-03-19T18:05:24.304Z,5.40
2019-03-19T18:08:11.779Z,5.40
2019-03-19T18:10:59.333Z,5.20
2019-03-19T18:13:46.997Z,5.00
2019-03-19T18:16:34.692Z,4.90
2019-03-19T18:19:22.462Z,4.80
2019-03-19T18:22:09.893Z,4.70
2019-03-19T18:24:57.297Z,4.50
2019-03-19T18:27:44.997Z,4.40
2019-03-19T18:30:32.601Z,4.30
2019-03-19T18:33:19.988Z,4.30
2019-03-19T18:36:07.691Z,4.10
2019-03-19T18:38:55.085Z,4.10
2019-03-19T18:41:42.798Z,4.00
2019-03-19T18:44:30.257Z,3.90
2019-03-19T18:47:17.665Z,3.80
2019-03-19T18:50:11.112Z,3.70
2019-03-19T18:52:59.016Z,3.60
2019-03-19T18:55:46.558Z,3.50
2019-03-19T18:58:34.310Z,3.40
2019-03-19T19:01:22.030Z,3.30
2019-03-19T19:04:09.753Z,3.30
2019-03-19T19:06:57.469Z,3.20
2019-03-19T19:09:45.181Z,3.10
2019-03-19T19:12:32.809Z,3.00
2019-03-19T19:15:25.134Z,2.80
2019-03-19T19:18:12.868Z,2.80
2019-03-19T19:21:00.541Z,2.70
2019-03-19T19:23:48.100Z,2.60
2019-03-19T19:26:35.719Z,0.60
2019-03-19T19:29:24.122Z,2.40
2019-03-19T19:32:11.584Z,2.40
2019-03-19T19:34:59.381Z,2.30
2019-03-19T19:37:46.762Z,2.20
2019-03-19T19:40:34.325Z,2.20
2019-03-19T19:43:21.977Z,2.10
2019-03-19T19:46:09.680Z,2.00
2019-03-19T19:48:57.084Z,2.00
2019-03-19T19:51:44.643Z,1.90
2019-03-19T19:54:32.570Z,1.80
2019-03-19T19:57:20.293Z,1.70
2019-03-19T20:00:10.925Z,1.70
2019-03-19T20:02:59.257Z,1.60
2019-03-19T20:05:47.061Z,1.50
2019-03-19T20:08:34.987Z,1.50
2019-03-19T20:11:22.586Z,1.40
2019-03-19T20:14:10.229Z,1.40
2019-03-19T20:16:57.648Z,1.30
2019-03-19T20:19:45.259Z,1.30
2019-03-19T20:22:32.698Z,1.30
2019-03-19T20:25:20.217Z,3.60
2019-03-19T20:28:07.701Z,1.10
2019-03-19T20:30:55.276Z,1.10
2019-03-19T20:33:42.922Z,1.10
2019-03-19T20:36:30.654Z,1.00
2019-03-19T20:39:18.447Z,0.80
2019-03-19T20:42:06.107Z,0.80
2019-03-19T20:44:53.492Z,0.70
2019-03-19T20:47:41.189Z,0.70
2019-03-19T20:50:37.210Z,0.50
2019-03-19T20:53:24.770Z,0.40
2019-03-19T20:56:12.505Z,0.40
2019-03-19T20:59:00.025Z,0.30
2019-03-19T21:01:47.723Z,0.30
2019-03-19T21:04:35.201Z,0.30
2019-03-19T21:07:22.773Z,0.30
2019-03-19T21:10:13.510Z,0.30
2019-03-19T21:13:00.862Z,0.20
2019-03-19T21:15:48.577Z,0.10
2019-03-19T21:18:36.340Z,0.10
2019-03-19T21:21:24.055Z,0.10
2019-03-19T21:24:11.694Z,0.00
2019-03-19T21:26:59.254Z,0.00
2019-03-19T21:29:47.096Z,-0.10
2019-03-19T21:32:34.717Z,-0.20
2019-03-19T21:35:28.194Z,-0.20
2019-03-19T21:38:16.538Z,-0.20
2019-03-19T21:41:04.261Z,-0.30
2019-03-19T21:43:51.682Z,-0.40
2019-03-19T21:46:39.346Z,-0.50
2019-03-19T21:49:26.964Z,-0.50
2019-03-19T21:52:14.694Z,-0.60
2019-03-19T21:55:02.366Z,-0.60
2019-03-19T21:57:50.025Z,-0.70
2019-03-19T22:00:37.696Z,-0.70
2019-03-19T22:03:25.536Z,-0.70
2019-03-19T22:06:13.264Z,-0.80
2019-03-19T22:09:00.919Z,-0.80
2019-03-19T22:11:48.755Z,-0.90
2019-03-19T22:14:36.482Z,-1.00
2019-03-19T22:17:23.921Z,-1.00
2019-03-19T22:20:12.610Z,-0.90
2019-03-19T22:23:00.293Z,-0.80
2019-03-19T22:25:48.123Z,-1.00
2019-03-19T22:28:35.624Z,-1.00
2019-03-19T22:31:23.241Z,-0.90
2019-03-19T22:34:14.252Z,-1.00
2019-03-19T22:37:00.943Z,-1.00
2019-03-19T22:39:48.431Z,-1.10
2019-03-19T22:42:35.706Z,-1.10
2019-03-19T22:45:23.519Z,-1.20
2019-03-19T22:48:11.002Z,-1.30
2019-03-19T22:50:58.407Z,-1.30
2019-03-19T22:53:46.122Z,-1.40
2019-03-19T22:56:34.148Z,-1.40
2019-03-19T22:59:21.482Z,-1.40
2019-03-19T23:02:09.246Z,-1.40
2019-03-19T23:04:56.946Z,-1.40
2019-03-19T23:07:44.719Z,-1.50
2019-03-19T23:10:32.410Z,-1.50
2019-03-19T23:13:19.802Z,-1.50
2019-03-19T23:16:07.351Z,-1.50
2019-03-19T23:18:55.188Z,-1.60
2019-03-19T23:21:42.627Z,-1.50
2019-03-19T23:24:30.361Z,-1.60
2019-03-19T23:27:18.110Z,-1.70
2019-03-19T23:30:08.812Z,-1.70
2019-03-19T23:32:56.216Z,-1.70
2019-03-19T23:35:44.346Z,-1.80
2019-03-19T23:38:31.760Z,-1.80
2019-03-19T23:41:20.479Z,-1.80
2019-03-19T23:44:08.353Z,-1.80
2019-03-19T23:47:00.865Z,-1.80
2019-03-19T23:49:48.854Z,-1.90
2019-03-19T23:52:36.544Z,-1.90
2019-03-19T23:55:24.355Z,-1.90
2019-03-19T23:58:12.099Z,-1.90
